YCEM weather

Coldstream Airport
Coldstream, Victoria, Australia

Public forecast

Using degrees Celsius for public forecast. Weather courtesy of forecast.io.

METAR (pilot weather report)

Closest report is Melbourne Essendon Airport, 24.0 nm (44.5 km) W. Retrieved 2019/02/18 07:00 UTC (45 minutes ago):

YMEN 180700Z AUTO 18016KT 9999 // NCD 21/14 Q1007

TAF (pilot weather forecast)

Closest forecast is Melbourne International Airport, 27.1 nm (50.1 km) W. Retrieved 2019/02/18 06:00 UTC (2 hours ago):

TAF YMML 180508Z 1806/1912 17015G25KT 9999 FEW025 SCT040 BECMG 1810/1812 24008KT 9999 SCT035 FM190400 17015KT 9999 SCT040 FM191000 21008KT 9999 SCT025